createdAt,value
2022-09-10T00:01:18.993Z,19.49
2022-09-10T00:03:48.841Z,19.48
2022-09-10T00:06:18.795Z,19.47
2022-09-10T00:08:47.031Z,19.46
2022-09-10T00:11:15.373Z,19.43
2022-09-10T00:13:43.853Z,19.43
2022-09-10T00:16:13.491Z,19.40
2022-09-10T00:18:41.884Z,19.38
2022-09-10T00:21:11.961Z,19.38
2022-09-10T00:23:40.348Z,19.37
2022-09-10T00:26:13.511Z,19.34
2022-09-10T00:28:42.310Z,19.33
2022-09-10T00:31:11.360Z,19.31
2022-09-10T00:33:39.820Z,19.30
2022-09-10T00:36:18.221Z,19.31
2022-09-10T00:38:46.752Z,19.29
2022-09-10T00:41:15.264Z,19.29
2022-09-10T00:43:52.144Z,19.29
2022-09-10T00:46:27.075Z,19.30
2022-09-10T00:48:56.749Z,19.29
2022-09-10T00:51:26.473Z,19.26
2022-09-10T00:53:54.564Z,19.23
2022-09-10T00:56:23.049Z,19.22
2022-09-10T00:58:50.864Z,19.24
2022-09-10T01:01:19.483Z,19.24
2022-09-10T01:03:47.621Z,19.25
2022-09-10T01:06:16.056Z,19.23
2022-09-10T01:08:43.806Z,19.22
2022-09-10T01:11:17.693Z,19.23
2022-09-10T01:13:51.447Z,19.18
2022-09-10T01:16:29.973Z,19.15
2022-09-10T01:19:16.738Z,19.13
2022-09-10T01:21:59.818Z,19.10
2022-09-10T01:24:39.747Z,19.08
2022-09-10T01:27:26.421Z,19.10
2022-09-10T01:29:58.642Z,19.07
2022-09-10T01:32:30.144Z,19.04
2022-09-10T01:34:57.922Z,19.02
2022-09-10T01:37:29.821Z,19.00
2022-09-10T01:39:59.271Z,18.98
2022-09-10T01:42:28.874Z,18.95
2022-09-10T01:44:58.059Z,18.93
2022-09-10T01:47:37.247Z,18.90
2022-09-10T01:50:06.306Z,18.86
2022-09-10T01:52:37.188Z,18.85
2022-09-10T01:55:10.541Z,18.85
2022-09-10T01:57:59.231Z,18.86
2022-09-10T02:00:38.339Z,18.84
2022-09-10T02:03:11.383Z,18.81
2022-09-10T02:05:41.898Z,18.77
2022-09-10T02:08:14.591Z,18.76
2022-09-10T02:10:54.052Z,18.76
2022-09-10T02:13:24.271Z,18.75
2022-09-10T02:16:12.849Z,18.74
2022-09-10T02:18:45.197Z,18.72
2022-09-10T02:21:13.068Z,18.70
2022-09-10T02:23:55.164Z,18.70
2022-09-10T02:26:23.847Z,18.70
2022-09-10T02:28:52.534Z,18.73
2022-09-10T02:31:20.636Z,18.74
2022-09-10T02:33:48.468Z,18.71
2022-09-10T02:36:16.339Z,18.67
2022-09-10T02:38:44.611Z,18.66
2022-09-10T02:41:12.479Z,18.64
2022-09-10T02:43:42.959Z,18.62
2022-09-10T02:46:10.977Z,18.65
2022-09-10T02:48:40.083Z,18.64
2022-09-10T02:51:08.550Z,18.64
2022-09-10T02:53:37.032Z,18.66
2022-09-10T02:56:05.816Z,18.68
2022-09-10T02:58:34.255Z,18.68
2022-09-10T03:01:08.754Z,18.68
2022-09-10T03:03:37.304Z,18.70
2022-09-10T03:06:05.992Z,18.71
2022-09-10T03:08:34.303Z,18.72
2022-09-10T03:11:02.926Z,18.73
2022-09-10T03:13:30.597Z,18.72
2022-09-10T03:15:59.343Z,18.74
2022-09-10T03:18:31.111Z,18.73
2022-09-10T03:21:18.440Z,18.71
2022-09-10T03:23:48.948Z,18.72
2022-09-10T03:26:20.971Z,18.76
2022-09-10T03:28:50.278Z,18.76
2022-09-10T03:31:19.686Z,18.77
2022-09-10T03:33:49.478Z,18.78
2022-09-10T03:36:18.471Z,18.79
2022-09-10T03:38:48.181Z,18.78
2022-09-10T03:41:15.947Z,18.79
2022-09-10T03:43:43.644Z,18.77
2022-09-10T03:46:12.327Z,18.75
2022-09-10T03:48:43.877Z,18.78
2022-09-10T03:51:11.850Z,18.81
2022-09-10T03:53:41.085Z,18.81
2022-09-10T03:56:11.375Z,18.82
2022-09-10T03:58:40.082Z,18.83
2022-09-10T04:01:09.124Z,18.83
2022-09-10T04:03:37.390Z,18.82
2022-09-10T04:06:05.161Z,18.80
2022-09-10T04:08:32.922Z,18.81
2022-09-10T04:11:03.480Z,18.82
2022-09-10T04:13:34.898Z,18.79
2022-09-10T04:16:03.480Z,18.80
2022-09-10T04:18:34.447Z,18.79
2022-09-10T04:21:03.628Z,18.78
2022-09-10T04:23:33.017Z,18.78
2022-09-10T04:26:11.429Z,18.76
2022-09-10T04:28:40.084Z,18.76
2022-09-10T04:31:08.123Z,18.77
2022-09-10T04:33:36.769Z,18.75
2022-09-10T04:36:06.372Z,18.74
2022-09-10T04:38:40.178Z,18.74
2022-09-10T04:41:09.356Z,18.73
2022-09-10T04:43:37.180Z,18.69
2022-09-10T04:46:09.851Z,18.66
2022-09-10T04:48:40.394Z,18.66
2022-09-10T04:51:17.719Z,18.64
2022-09-10T04:53:48.679Z,18.60
2022-09-10T04:56:17.106Z,18.56
2022-09-10T04:58:45.365Z,18.53
2022-09-10T05:01:14.103Z,18.52
2022-09-10T05:03:44.561Z,18.48
2022-09-10T05:06:13.273Z,18.45
2022-09-10T05:08:41.711Z,18.45
2022-09-10T05:11:11.626Z,18.42
2022-09-10T05:13:39.525Z,18.38
2022-09-10T05:16:07.839Z,18.34
2022-09-10T05:18:36.309Z,18.36
2022-09-10T05:21:05.420Z,18.33
2022-09-10T05:23:34.325Z,18.28
2022-09-10T05:26:02.647Z,18.25
2022-09-10T05:28:31.342Z,18.21
2022-09-10T05:30:59.779Z,18.19
2022-09-10T05:33:29.459Z,18.18
2022-09-10T05:35:57.358Z,18.18
2022-09-10T05:38:26.665Z,18.18
2022-09-10T05:40:54.785Z,18.16
2022-09-10T05:43:22.815Z,18.18
2022-09-10T05:45:52.410Z,18.19
2022-09-10T05:48:21.273Z,18.17
2022-09-10T05:50:53.359Z,18.16
2022-09-10T05:53:21.806Z,18.17
2022-09-10T05:55:50.115Z,18.17
2022-09-10T05:58:19.029Z,18.19
2022-09-10T06:00:50.046Z,18.21
2022-09-10T06:03:21.115Z,18.23
2022-09-10T06:05:52.839Z,18.26
2022-09-10T06:08:25.039Z,18.28
2022-09-10T06:11:01.156Z,18.31
2022-09-10T06:13:33.734Z,18.33
2022-09-10T06:16:02.639Z,18.34
2022-09-10T06:18:33.260Z,18.34
2022-09-10T06:21:04.803Z,18.33
2022-09-10T06:23:33.208Z,18.33
2022-09-10T06:26:04.406Z,18.33
2022-09-10T06:28:33.695Z,18.29
2022-09-10T06:31:04.466Z,18.27
2022-09-10T06:33:33.988Z,18.28
2022-09-10T06:36:03.594Z,18.32
2022-09-10T06:38:37.002Z,18.34
2022-09-10T06:41:12.107Z,18.33
2022-09-10T06:43:44.971Z,18.35
2022-09-10T06:46:56.818Z,18.38
2022-09-10T06:49:11.355Z,18.42
2022-09-10T06:51:39.922Z,18.48
2022-09-10T06:54:10.482Z,18.50
2022-09-10T06:56:38.745Z,18.58
2022-09-10T06:59:06.489Z,18.63
2022-09-10T07:01:45.552Z,18.69
2022-09-10T07:04:14.660Z,18.73
2022-09-10T07:06:43.109Z,18.76
2022-09-10T07:09:17.939Z,18.84
2022-09-10T07:11:57.578Z,18.94
2022-09-10T07:14:25.756Z,19.01
2022-09-10T07:16:55.671Z,19.06
2022-09-10T07:19:25.636Z,19.06
2022-09-10T07:21:53.655Z,19.11
2022-09-10T07:24:21.628Z,19.15
2022-09-10T07:27:00.957Z,19.17
2022-09-10T07:29:31.172Z,19.19
2022-09-10T07:32:00.073Z,19.19
2022-09-10T07:34:28.025Z,19.21
2022-09-10T07:36:56.927Z,19.27
2022-09-10T07:39:26.066Z,19.31
2022-09-10T07:41:55.015Z,19.33
2022-09-10T07:44:26.264Z,19.38
2022-09-10T07:46:54.332Z,19.44
2022-09-10T07:49:22.076Z,19.46
2022-09-10T07:51:57.613Z,19.48
2022-09-10T07:54:30.011Z,19.51
2022-09-10T07:56:58.462Z,19.61
2022-09-10T07:59:28.080Z,19.72
2022-09-10T08:02:01.845Z,19.84
2022-09-10T08:04:36.744Z,19.99
2022-09-10T08:07:07.164Z,20.12
2022-09-10T08:09:36.979Z,20.22
2022-09-10T08:12:07.810Z,20.27
2022-09-10T08:14:38.157Z,20.32
2022-09-10T08:17:06.092Z,20.34
2022-09-10T08:19:38.064Z,20.37
2022-09-10T08:22:10.284Z,20.42
2022-09-10T08:24:42.829Z,20.50
2022-09-10T08:27:11.901Z,20.54
2022-09-10T08:29:40.281Z,20.52
2022-09-10T08:32:13.097Z,20.51
2022-09-10T08:34:42.973Z,20.48
2022-09-10T08:37:12.587Z,20.44
2022-09-10T08:39:40.821Z,20.45
2022-09-10T08:42:15.380Z,20.49
2022-09-10T08:44:49.865Z,20.46
2022-09-10T08:47:28.078Z,20.48
2022-09-10T08:49:57.719Z,20.46
2022-09-10T08:52:38.386Z,20.49
2022-09-10T08:55:13.112Z,20.48
2022-09-10T08:57:45.390Z,20.46
2022-09-10T09:00:15.606Z,20.46
2022-09-10T09:02:49.795Z,20.44
2022-09-10T09:05:21.772Z,20.41
2022-09-10T09:07:52.208Z,20.41
2022-09-10T09:10:20.484Z,20.42
2022-09-10T09:12:54.088Z,20.42
2022-09-10T09:15:21.877Z,20.45
2022-09-10T09:17:59.884Z,20.42
2022-09-10T09:20:48.877Z,20.44
2022-09-10T09:23:35.107Z,20.49
2022-09-10T09:26:11.662Z,20.46
2022-09-10T09:28:44.561Z,20.40
2022-09-10T09:31:17.992Z,20.31
2022-09-10T09:33:49.719Z,20.27
2022-09-10T09:36:19.750Z,20.20
2022-09-10T09:38:50.912Z,20.22
2022-09-10T09:41:30.417Z,20.28
2022-09-10T09:44:22.882Z,20.30
2022-09-10T09:46:50.928Z,20.38
2022-09-10T09:49:18.945Z,20.46
2022-09-10T09:51:48.199Z,20.51
2022-09-10T09:57:14.899Z,20.63
2022-09-10T09:59:42.720Z,20.68
2022-09-10T10:02:12.686Z,20.70
2022-09-10T10:04:42.443Z,20.67
2022-09-10T10:07:12.095Z,20.69
2022-09-10T10:09:44.255Z,20.73
2022-09-10T10:12:19.581Z,20.75
2022-09-10T10:14:47.531Z,20.80
2022-09-10T10:17:41.573Z,20.87
2022-09-10T10:20:16.395Z,21.03
2022-09-10T10:22:45.596Z,21.22
2022-09-10T10:25:33.471Z,21.33
2022-09-10T10:28:01.258Z,21.41
2022-09-10T10:30:30.333Z,21.42
2022-09-10T10:32:59.019Z,21.43
2022-09-10T10:35:27.383Z,21.45
2022-09-10T10:38:08.016Z,21.45
2022-09-10T10:40:38.283Z,21.44
2022-09-10T10:43:06.253Z,21.44
2022-09-10T10:45:56.143Z,21.45
2022-09-10T10:48:57.782Z,21.48
2022-09-10T10:51:44.709Z,21.40
2022-09-10T10:54:31.376Z,21.32
2022-09-10T10:57:17.711Z,21.20
2022-09-10T10:59:48.323Z,21.18
2022-09-10T11:02:20.639Z,21.16
2022-09-10T11:04:53.566Z,21.12
2022-09-10T11:07:25.373Z,21.06
2022-09-10T11:09:56.189Z,20.97
2022-09-10T11:12:33.999Z,20.95
2022-09-10T11:15:01.751Z,20.89
2022-09-10T11:17:35.042Z,20.82
2022-09-10T11:20:27.141Z,20.72
2022-09-10T11:22:53.921Z,20.61
2022-09-10T11:25:21.644Z,20.51
2022-09-10T11:27:52.831Z,20.40
2022-09-10T11:30:20.899Z,20.29
2022-09-10T11:32:51.635Z,20.16
2022-09-10T11:35:22.466Z,19.99
2022-09-10T11:37:53.126Z,19.86
2022-09-10T11:40:26.964Z,19.74
2022-09-10T11:42:57.647Z,19.56
2022-09-10T11:45:36.463Z,19.47
2022-09-10T11:48:07.218Z,19.42
2022-09-10T11:50:56.413Z,19.33
2022-09-10T11:53:25.353Z,19.39
2022-09-10T11:56:18.940Z,19.44
2022-09-10T11:59:05.044Z,19.56
2022-09-10T12:01:50.856Z,19.60
2022-09-10T12:04:40.077Z,19.71
2022-09-10T12:07:21.861Z,19.78
2022-09-10T12:09:52.901Z,19.83
2022-09-10T12:12:32.646Z,19.94
2022-09-10T12:15:00.922Z,20.07
2022-09-10T12:17:34.421Z,20.23
2022-09-10T12:20:04.412Z,20.34
2022-09-10T12:22:37.054Z,20.39
2022-09-10T12:25:06.077Z,20.45
2022-09-10T12:27:45.533Z,20.51
2022-09-10T12:30:36.050Z,20.55
2022-09-10T12:33:13.089Z,20.61
2022-09-10T12:35:48.342Z,20.69
2022-09-10T12:38:35.901Z,20.78
2022-09-10T12:41:05.105Z,20.85
2022-09-10T12:43:39.114Z,20.91
2022-09-10T12:46:07.402Z,21.04
2022-09-10T12:48:36.940Z,21.18
2022-09-10T12:51:12.809Z,21.27
2022-09-10T12:53:40.769Z,21.30
2022-09-10T12:56:22.699Z,21.35
2022-09-10T12:59:09.508Z,21.33
2022-09-10T13:01:46.547Z,21.32
2022-09-10T13:04:34.745Z,21.32
2022-09-10T13:07:05.977Z,21.35
2022-09-10T13:09:36.475Z,21.35
2022-09-10T13:12:15.138Z,21.35
2022-09-10T13:14:46.065Z,21.36
2022-09-10T13:17:34.123Z,21.38
2022-09-10T13:20:13.364Z,21.44
2022-09-10T13:23:01.481Z,21.52
2022-09-10T13:25:37.056Z,21.60
2022-09-10T13:28:25.251Z,21.70
2022-09-10T13:31:00.105Z,21.78
2022-09-10T13:33:34.353Z,21.78
2022-09-10T13:36:13.728Z,21.74
2022-09-10T13:38:41.512Z,21.69
2022-09-10T13:41:15.147Z,21.65
2022-09-10T13:44:01.575Z,21.62
2022-09-10T13:46:35.688Z,21.58
2022-09-10T13:49:21.765Z,21.52
2022-09-10T13:51:54.546Z,21.49
2022-09-10T13:54:23.802Z,21.46
2022-09-10T13:56:52.978Z,21.44
2022-09-10T13:59:26.265Z,21.43
2022-09-10T14:01:54.825Z,21.42
2022-09-10T14:04:23.694Z,21.43
2022-09-10T14:06:51.529Z,21.45
2022-09-10T14:09:19.612Z,21.46
2022-09-10T14:11:47.669Z,21.46
2022-09-10T14:14:18.648Z,21.46
2022-09-10T14:16:51.917Z,21.43
2022-09-10T14:19:47.805Z,21.28
2022-09-10T14:22:17.208Z,20.49
2022-09-10T14:24:51.526Z,19.80
2022-09-10T14:27:46.424Z,19.27
2022-09-10T14:30:17.381Z,18.87
2022-09-10T14:32:46.478Z,18.65
2022-09-10T14:35:33.186Z,18.55
2022-09-10T14:38:04.572Z,18.44
2022-09-10T14:40:36.485Z,18.39
2022-09-10T14:43:26.583Z,18.37
2022-09-10T14:45:54.671Z,18.32
2022-09-10T14:48:28.767Z,18.30
2022-09-10T14:51:11.172Z,18.32
2022-09-10T14:53:39.648Z,18.35
2022-09-10T14:56:20.424Z,18.36
2022-09-10T14:58:51.155Z,18.46
2022-09-10T15:01:19.660Z,18.61
2022-09-10T15:03:47.378Z,18.73
2022-09-10T15:06:15.168Z,18.84
2022-09-10T15:08:42.955Z,18.94
2022-09-10T15:11:24.173Z,19.06
2022-09-10T15:13:56.103Z,19.19
2022-09-10T15:16:24.061Z,19.22
2022-09-10T15:18:52.108Z,19.10
2022-09-10T15:21:23.148Z,18.97
2022-09-10T15:23:51.077Z,18.85
2022-09-10T15:26:28.815Z,18.72
2022-09-10T15:28:57.317Z,18.63
2022-09-10T15:31:33.011Z,18.54
2022-09-10T15:34:03.675Z,18.44
2022-09-10T15:36:31.641Z,18.35
2022-09-10T15:38:59.919Z,18.32
2022-09-10T15:41:28.101Z,18.37
2022-09-10T15:43:56.135Z,18.37
2022-09-10T15:46:26.766Z,18.40
2022-09-10T15:48:55.894Z,18.36
2022-09-10T15:51:23.974Z,18.31
2022-09-10T15:53:52.520Z,18.26
2022-09-10T15:56:21.026Z,18.22
2022-09-10T15:58:52.783Z,18.21
2022-09-10T16:01:20.884Z,18.19
2022-09-10T16:03:50.324Z,18.17
2022-09-10T16:06:19.684Z,18.17
2022-09-10T16:08:49.366Z,18.19
2022-09-10T16:11:18.250Z,18.21
2022-09-10T16:13:46.849Z,18.22
2022-09-10T16:16:16.869Z,18.25
2022-09-10T16:18:45.851Z,18.18
2022-09-10T16:21:23.924Z,18.09
2022-09-10T16:23:53.755Z,18.00
2022-09-10T16:26:23.897Z,17.94
2022-09-10T16:28:56.462Z,17.89
2022-09-10T16:31:25.530Z,17.87
2022-09-10T16:33:56.496Z,17.84
2022-09-10T16:36:25.064Z,17.80
2022-09-10T16:38:54.585Z,17.80
2022-09-10T16:41:23.150Z,17.78
2022-09-10T16:43:51.648Z,17.76
2022-09-10T16:46:24.161Z,17.73
2022-09-10T16:48:53.033Z,17.70
2022-09-10T16:51:23.309Z,17.70
2022-09-10T16:54:03.878Z,17.69
2022-09-10T16:56:35.799Z,17.69
2022-09-10T16:59:04.461Z,17.70
2022-09-10T17:01:32.229Z,17.69
2022-09-10T17:04:00.759Z,17.68
2022-09-10T17:06:29.479Z,17.68
2022-09-10T17:08:58.454Z,17.68
2022-09-10T17:11:28.143Z,17.69
2022-09-10T17:13:58.708Z,17.68
2022-09-10T17:16:33.748Z,17.63
2022-09-10T17:19:03.462Z,17.61
2022-09-10T17:21:32.037Z,17.59
2022-09-10T17:24:00.209Z,17.52
2022-09-10T17:26:28.081Z,17.39
2022-09-10T17:28:57.375Z,17.31
2022-09-10T17:31:25.811Z,17.26
2022-09-10T17:33:53.836Z,17.23
2022-09-10T17:36:22.509Z,17.22
2022-09-10T17:38:50.376Z,17.19
2022-09-10T17:41:18.243Z,17.16
2022-09-10T17:43:46.006Z,17.12
2022-09-10T17:46:15.573Z,17.11
2022-09-10T17:48:46.142Z,17.11
2022-09-10T17:51:17.082Z,17.05
2022-09-10T17:53:45.192Z,17.03
2022-09-10T17:56:14.266Z,17.02
2022-09-10T17:58:42.583Z,16.96
2022-09-10T18:01:27.466Z,16.93
2022-09-10T18:03:55.516Z,16.90
2022-09-10T18:06:29.098Z,16.87
2022-09-10T18:08:59.106Z,16.87
2022-09-10T18:11:28.373Z,16.82
2022-09-10T18:14:01.191Z,16.79
2022-09-10T18:16:46.371Z,16.78
2022-09-10T18:19:16.057Z,16.75
2022-09-10T18:21:45.205Z,16.75
2022-09-10T18:24:13.104Z,16.74
2022-09-10T18:26:46.633Z,16.75
2022-09-10T18:29:15.826Z,16.77
2022-09-10T18:31:44.992Z,16.80
2022-09-10T18:34:17.509Z,16.83
2022-09-10T18:36:49.193Z,16.84
2022-09-10T18:39:17.295Z,16.81
2022-09-10T18:41:52.391Z,16.79
2022-09-10T18:44:25.019Z,16.79
2022-09-10T18:46:53.490Z,16.81
2022-09-10T18:49:22.029Z,16.81
2022-09-10T18:51:50.320Z,16.80
2022-09-10T18:54:18.625Z,16.79
2022-09-10T18:56:48.230Z,16.78
2022-09-10T18:59:18.151Z,16.74
2022-09-10T19:01:47.011Z,16.69
2022-09-10T19:04:16.538Z,16.66
2022-09-10T19:06:46.765Z,16.66
2022-09-10T19:09:19.595Z,16.59
2022-09-10T19:11:48.537Z,16.53
2022-09-10T19:14:37.392Z,16.50
2022-09-10T19:17:05.155Z,16.51
2022-09-10T19:19:35.034Z,16.52
2022-09-10T19:22:06.265Z,16.55
2022-09-10T19:27:22.954Z,16.51
2022-09-10T19:29:51.730Z,16.51
2022-09-10T19:32:20.360Z,16.51
2022-09-10T19:34:49.608Z,16.48
2022-09-10T19:37:17.781Z,16.44
2022-09-10T19:39:45.785Z,16.45
2022-09-10T19:42:14.088Z,16.45
2022-09-10T19:44:42.094Z,16.43
2022-09-10T19:47:10.780Z,16.40
2022-09-10T19:49:39.132Z,16.36
2022-09-10T19:52:06.926Z,16.34
2022-09-10T19:54:35.059Z,16.35
2022-09-10T19:57:02.829Z,16.34
2022-09-10T19:59:31.650Z,16.36
2022-09-10T20:01:59.773Z,16.35
2022-09-10T20:04:28.275Z,16.34
2022-09-10T20:06:56.026Z,16.33
2022-09-10T20:09:24.341Z,16.33
2022-09-10T20:11:52.046Z,16.33
2022-09-10T20:14:20.250Z,16.32
2022-09-10T20:16:48.148Z,16.32
2022-09-10T20:19:18.581Z,16.33
2022-09-10T20:21:47.976Z,16.34
2022-09-10T20:24:16.771Z,16.33
2022-09-10T20:26:46.467Z,16.35
2022-09-10T20:29:18.064Z,16.41
2022-09-10T20:31:47.225Z,16.44
2022-09-10T20:34:16.609Z,16.45
2022-09-10T20:36:44.797Z,16.47
2022-09-10T20:39:14.140Z,16.48
2022-09-10T20:41:42.680Z,16.48
2022-09-10T20:44:13.057Z,16.50
2022-09-10T20:46:41.707Z,16.47
2022-09-10T20:49:10.962Z,16.44
2022-09-10T20:51:40.589Z,16.40
2022-09-10T20:54:12.453Z,16.37
2022-09-10T20:56:40.662Z,16.33
2022-09-10T20:59:08.598Z,16.30
2022-09-10T21:01:36.598Z,16.25
2022-09-10T21:04:04.613Z,16.24
2022-09-10T21:06:33.528Z,16.24
2022-09-10T21:09:02.199Z,16.23
2022-09-10T21:11:31.492Z,16.23
2022-09-10T21:14:00.608Z,16.22
2022-09-10T21:16:33.204Z,16.22
2022-09-10T21:19:11.749Z,16.23
2022-09-10T21:21:40.375Z,16.24
2022-09-10T21:24:19.809Z,16.26
2022-09-10T21:26:49.188Z,16.29
2022-09-10T21:29:19.650Z,16.31
2022-09-10T21:31:50.632Z,16.31
2022-09-10T21:34:19.371Z,16.28
2022-09-10T21:36:47.873Z,16.24
2022-09-10T21:39:17.495Z,16.22
2022-09-10T21:41:47.157Z,16.20
2022-09-10T21:44:16.757Z,16.13
2022-09-10T21:46:45.315Z,16.09
2022-09-10T21:49:14.083Z,16.04
2022-09-10T21:51:41.984Z,15.99
2022-09-10T21:54:14.294Z,15.94
2022-09-10T21:56:42.033Z,15.90
2022-09-10T21:59:10.529Z,15.84
2022-09-10T22:01:39.364Z,15.83
2022-09-10T22:04:07.200Z,15.82
2022-09-10T22:06:35.596Z,15.85
2022-09-10T22:09:07.523Z,15.84
2022-09-10T22:11:41.432Z,15.83
2022-09-10T22:14:13.630Z,15.81
2022-09-10T22:16:41.464Z,15.81
2022-09-10T22:19:11.795Z,15.81
2022-09-10T22:21:40.980Z,15.84
2022-09-10T22:24:10.088Z,15.83
2022-09-10T22:26:42.555Z,15.82
2022-09-10T22:29:11.835Z,15.84
2022-09-10T22:31:39.685Z,15.85
2022-09-10T22:34:10.378Z,15.81
2022-09-10T22:36:39.446Z,15.79
2022-09-10T22:39:09.100Z,15.76
2022-09-10T22:41:37.424Z,15.72
2022-09-10T22:44:06.016Z,15.68
2022-09-10T22:46:34.887Z,15.66
2022-09-10T22:49:02.927Z,15.62
2022-09-10T22:51:34.349Z,15.59
2022-09-10T22:54:02.907Z,15.57
2022-09-10T22:56:30.877Z,15.57
2022-09-10T22:58:59.569Z,15.58
2022-09-10T23:01:32.185Z,15.59
2022-09-10T23:04:01.263Z,15.60
2022-09-10T23:06:30.944Z,15.61
2022-09-10T23:09:03.633Z,15.59
2022-09-10T23:11:32.408Z,15.60
2022-09-10T23:14:04.065Z,15.61
2022-09-10T23:16:36.232Z,15.60
2022-09-10T23:19:05.609Z,15.62
2022-09-10T23:21:34.729Z,15.61
2022-09-10T23:24:04.412Z,15.61
2022-09-10T23:26:32.818Z,15.59
2022-09-10T23:29:03.683Z,15.57
2022-09-10T23:31:32.799Z,15.55
2022-09-10T23:34:03.280Z,15.52
2022-09-10T23:36:33.085Z,15.52
2022-09-10T23:39:04.906Z,15.50
2022-09-10T23:41:32.935Z,15.48
2022-09-10T23:44:00.639Z,15.49
2022-09-10T23:46:28.776Z,15.40
2022-09-10T23:48:57.235Z,15.31
2022-09-10T23:51:24.925Z,15.28
2022-09-10T23:53:54.910Z,15.27
2022-09-10T23:56:23.787Z,15.26
2022-09-10T23:58:52.485Z,15.21
